sensor_id;sensor_type;location;lat;lon;timestamp;pressure;altitude;pressure_sealevel;temperature;humidity
48204;BME280;33994;50.998;5.864;2023-07-20T00:01:03;100915.63;;;17.76;77.33
48204;BME280;33994;50.998;5.864;2023-07-20T00:04:06;100920.06;;;17.75;77.36
48204;BME280;33994;50.998;5.864;2023-07-20T00:07:11;100914.97;;;17.71;77.31
48204;BME280;33994;50.998;5.864;2023-07-20T00:10:14;100912.50;;;17.66;77.58
48204;BME280;33994;50.998;5.864;2023-07-20T00:13:17;100917.09;;;17.61;77.99
48204;BME280;33994;50.998;5.864;2023-07-20T00:16:20;100921.72;;;17.56;78.30
48204;BME280;33994;50.998;5.864;2023-07-20T00:19:24;100917.22;;;17.58;78.72
48204;BME280;33994;50.998;5.864;2023-07-20T00:22:28;100921.19;;;17.48;79.29
48204;BME280;33994;50.998;5.864;2023-07-20T00:25:32;100921.41;;;17.43;79.99
48204;BME280;33994;50.998;5.864;2023-07-20T00:28:35;100917.16;;;17.39;80.29
48204;BME280;33994;50.998;5.864;2023-07-20T00:31:38;100917.59;;;17.29;81.11
48204;BME280;33994;50.998;5.864;2023-07-20T00:34:41;100908.00;;;17.26;81.47
48204;BME280;33994;50.998;5.864;2023-07-20T00:37:46;100906.53;;;17.19;81.96
48204;BME280;33994;50.998;5.864;2023-07-20T00:40:49;100909.25;;;17.17;82.26
48204;BME280;33994;50.998;5.864;2023-07-20T00:43:52;100910.97;;;17.18;82.42
48204;BME280;33994;50.998;5.864;2023-07-20T00:46:56;100915.31;;;17.19;82.60
48204;BME280;33994;50.998;5.864;2023-07-20T00:49:59;100914.53;;;17.17;82.49
48204;BME280;33994;50.998;5.864;2023-07-20T00:53:04;100913.72;;;17.15;82.50
48204;BME280;33994;50.998;5.864;2023-07-20T00:56:07;100911.22;;;17.12;82.27
48204;BME280;33994;50.998;5.864;2023-07-20T00:59:11;100913.06;;;17.10;82.48
48204;BME280;33994;50.998;5.864;2023-07-20T01:02:14;100913.00;;;17.12;82.23
48204;BME280;33994;50.998;5.864;2023-07-20T01:05:18;100903.47;;;17.08;82.25
48204;BME280;33994;50.998;5.864;2023-07-20T01:08:29;100913.19;;;17.07;82.78
48204;BME280;33994;50.998;5.864;2023-07-20T01:11:38;100921.22;;;17.04;82.67
48204;BME280;33994;50.998;5.864;2023-07-20T01:14:41;100917.72;;;17.03;82.51
48204;BME280;33994;50.998;5.864;2023-07-20T01:17:45;100917.00;;;17.00;82.56
48204;BME280;33994;50.998;5.864;2023-07-20T01:20:48;100922.34;;;16.98;82.77
48204;BME280;33994;50.998;5.864;2023-07-20T01:24:35;100920.75;;;16.94;82.84
48204;BME280;33994;50.998;5.864;2023-07-20T01:27:56;100927.19;;;16.87;83.54
48204;BME280;33994;50.998;5.864;2023-07-20T01:31:21;100921.06;;;16.87;83.51
48204;BME280;33994;50.998;5.864;2023-07-20T01:34:24;100920.94;;;16.90;82.84
48204;BME280;33994;50.998;5.864;2023-07-20T01:37:29;100919.19;;;16.89;83.12
48204;BME280;33994;50.998;5.864;2023-07-20T01:40:34;100918.47;;;16.85;83.39
48204;BME280;33994;50.998;5.864;2023-07-20T01:43:38;100912.22;;;16.88;83.24
48204;BME280;33994;50.998;5.864;2023-07-20T01:46:42;100915.88;;;16.84;83.38
48204;BME280;33994;50.998;5.864;2023-07-20T01:49:46;100916.81;;;16.83;83.43
48204;BME280;33994;50.998;5.864;2023-07-20T01:52:48;100925.59;;;16.83;83.09
48204;BME280;33994;50.998;5.864;2023-07-20T01:55:52;100922.09;;;16.83;83.17
48204;BME280;33994;50.998;5.864;2023-07-20T01:58:55;100914.19;;;16.83;83.56
48204;BME280;33994;50.998;5.864;2023-07-20T02:02:00;100920.50;;;16.78;83.49
48204;BME280;33994;50.998;5.864;2023-07-20T02:05:03;100922.16;;;16.81;83.44
48204;BME280;33994;50.998;5.864;2023-07-20T02:08:07;100921.19;;;16.84;83.52
48204;BME280;33994;50.998;5.864;2023-07-20T02:11:10;100909.78;;;16.82;83.32
48204;BME280;33994;50.998;5.864;2023-07-20T02:14:14;100906.38;;;16.80;83.31
48204;BME280;33994;50.998;5.864;2023-07-20T02:17:19;100908.09;;;16.81;83.38
48204;BME280;33994;50.998;5.864;2023-07-20T02:20:22;100909.97;;;16.77;83.56
48204;BME280;33994;50.998;5.864;2023-07-20T02:23:25;100905.66;;;16.74;83.50
48204;BME280;33994;50.998;5.864;2023-07-20T02:26:29;100903.16;;;16.71;83.52
48204;BME280;33994;50.998;5.864;2023-07-20T02:29:32;100905.91;;;16.68;83.37
48204;BME280;33994;50.998;5.864;2023-07-20T02:32:36;100913.16;;;16.63;83.37
48204;BME280;33994;50.998;5.864;2023-07-20T02:35:40;100908.09;;;16.57;83.28
48204;BME280;33994;50.998;5.864;2023-07-20T02:38:43;100911.78;;;16.53;83.67
48204;BME280;33994;50.998;5.864;2023-07-20T02:41:47;100915.56;;;16.46;83.87
48204;BME280;33994;50.998;5.864;2023-07-20T02:44:50;100912.25;;;16.41;83.65
48204;BME280;33994;50.998;5.864;2023-07-20T02:47:54;100915.84;;;16.38;83.90
48204;BME280;33994;50.998;5.864;2023-07-20T02:50:58;100921.97;;;16.39;83.92
48204;BME280;33994;50.998;5.864;2023-07-20T02:54:01;100909.03;;;16.33;83.94
48204;BME280;33994;50.998;5.864;2023-07-20T02:57:05;100915.16;;;16.33;83.83
48204;BME280;33994;50.998;5.864;2023-07-20T03:00:09;100919.69;;;16.29;84.04
48204;BME280;33994;50.998;5.864;2023-07-20T03:03:13;100924.97;;;16.29;84.34
48204;BME280;33994;50.998;5.864;2023-07-20T03:06:17;100933.81;;;16.28;84.41
48204;BME280;33994;50.998;5.864;2023-07-20T03:09:20;100927.72;;;16.26;84.55
48204;BME280;33994;50.998;5.864;2023-07-20T03:12:23;100930.38;;;16.26;84.39
48204;BME280;33994;50.998;5.864;2023-07-20T03:15:26;100938.47;;;16.22;84.56
48204;BME280;33994;50.998;5.864;2023-07-20T03:18:31;100937.44;;;16.26;84.75
48204;BME280;33994;50.998;5.864;2023-07-20T03:21:34;100944.47;;;16.25;84.63
48204;BME280;33994;50.998;5.864;2023-07-20T03:24:37;100949.75;;;16.25;84.68
48204;BME280;33994;50.998;5.864;2023-07-20T03:27:40;100945.56;;;16.20;84.92
48204;BME280;33994;50.998;5.864;2023-07-20T03:30:44;100950.94;;;16.17;85.20
48204;BME280;33994;50.998;5.864;2023-07-20T03:33:48;100957.13;;;16.16;85.48
48204;BME280;33994;50.998;5.864;2023-07-20T03:36:51;100944.78;;;16.16;85.75
48204;BME280;33994;50.998;5.864;2023-07-20T03:39:54;100948.38;;;16.15;85.73
48204;BME280;33994;50.998;5.864;2023-07-20T03:42:58;100956.28;;;16.15;86.03
48204;BME280;33994;50.998;5.864;2023-07-20T03:46:01;100951.81;;;16.17;86.21
48204;BME280;33994;50.998;5.864;2023-07-20T03:49:05;100951.81;;;16.17;86.45
48204;BME280;33994;50.998;5.864;2023-07-20T03:52:09;100961.44;;;16.18;86.20
48204;BME280;33994;50.998;5.864;2023-07-20T03:55:12;100955.34;;;16.16;86.59
48204;BME280;33994;50.998;5.864;2023-07-20T03:58:15;100956.09;;;16.20;86.88
48204;BME280;33994;50.998;5.864;2023-07-20T04:01:19;100961.44;;;16.18;87.14
48204;BME280;33994;50.998;5.864;2023-07-20T04:04:23;100963.16;;;16.19;87.49
48204;BME280;33994;50.998;5.864;2023-07-20T04:07:27;100966.63;;;16.21;87.54
48204;BME280;33994;50.998;5.864;2023-07-20T04:10:30;100963.91;;;16.23;87.63
48204;BME280;33994;50.998;5.864;2023-07-20T04:13:33;100967.41;;;16.23;87.77
48204;BME280;33994;50.998;5.864;2023-07-20T04:16:36;100968.22;;;16.25;87.67
48204;BME280;33994;50.998;5.864;2023-07-20T04:19:41;100970.78;;;16.28;88.00
48204;BME280;33994;50.998;5.864;2023-07-20T04:22:44;100964.50;;;16.31;87.62
48204;BME280;33994;50.998;5.864;2023-07-20T04:25:47;100965.31;;;16.33;87.72
48204;BME280;33994;50.998;5.864;2023-07-20T04:28:50;100963.47;;;16.35;87.39
48204;BME280;33994;50.998;5.864;2023-07-20T04:31:53;100969.66;;;16.34;87.43
48204;BME280;33994;50.998;5.864;2023-07-20T04:34:58;100969.66;;;16.34;87.62
48204;BME280;33994;50.998;5.864;2023-07-20T04:38:01;100968.81;;;16.34;87.54
48204;BME280;33994;50.998;5.864;2023-07-20T04:41:04;100979.19;;;16.38;87.49
48204;BME280;33994;50.998;5.864;2023-07-20T04:44:07;100971.28;;;16.38;87.46
48204;BME280;33994;50.998;5.864;2023-07-20T04:47:11;100978.34;;;16.38;87.51
48204;BME280;33994;50.998;5.864;2023-07-20T04:50:15;100969.47;;;16.40;87.44
48204;BME280;33994;50.998;5.864;2023-07-20T04:53:18;100966.63;;;16.45;87.42
48204;BME280;33994;50.998;5.864;2023-07-20T04:56:21;100967.22;;;16.53;87.33
48204;BME280;33994;50.998;5.864;2023-07-20T04:59:25;100976.91;;;16.52;87.09
48204;BME280;33994;50.998;5.864;2023-07-20T05:02:28;100983.84;;;16.55;87.02
48204;BME280;33994;50.998;5.864;2023-07-20T05:05:32;100979.28;;;16.60;86.88
48204;BME280;33994;50.998;5.864;2023-07-20T05:08:36;100981.81;;;16.63;86.97
48204;BME280;33994;50.998;5.864;2023-07-20T05:11:39;100983.63;;;16.61;86.95
48204;BME280;33994;50.998;5.864;2023-07-20T05:14:42;100991.31;;;16.67;86.64
48204;BME280;33994;50.998;5.864;2023-07-20T05:17:45;100987.88;;;16.65;86.61
48204;BME280;33994;50.998;5.864;2023-07-20T05:20:50;100984.47;;;16.62;86.86
48204;BME280;33994;50.998;5.864;2023-07-20T05:23:53;100987.19;;;16.60;86.84
48204;BME280;33994;50.998;5.864;2023-07-20T05:26:58;100986.19;;;16.63;86.86
48204;BME280;33994;50.998;5.864;2023-07-20T05:30:01;100992.38;;;16.63;86.68
48204;BME280;33994;50.998;5.864;2023-07-20T05:33:04;100991.38;;;16.66;86.66
48204;BME280;33994;50.998;5.864;2023-07-20T05:36:08;100986.16;;;16.64;86.55
48204;BME280;33994;50.998;5.864;2023-07-20T05:39:12;100983.06;;;16.76;86.02
48204;BME280;33994;50.998;5.864;2023-07-20T05:42:15;100987.00;;;16.90;85.74
48204;BME280;33994;50.998;5.864;2023-07-20T05:45:18;100989.38;;;16.96;84.98
48204;BME280;33994;50.998;5.864;2023-07-20T05:48:23;100995.34;;;17.01;84.65
48204;BME280;33994;50.998;5.864;2023-07-20T05:51:27;101004.88;;;17.05;84.35
48204;BME280;33994;50.998;5.864;2023-07-20T05:54:30;101002.09;;;17.08;84.31
48204;BME280;33994;50.998;5.864;2023-07-20T05:57:34;101000.34;;;17.09;83.80
48204;BME280;33994;50.998;5.864;2023-07-20T06:00:37;101003.84;;;17.09;83.92
48204;BME280;33994;50.998;5.864;2023-07-20T06:03:40;101005.47;;;17.12;83.60
48204;BME280;33994;50.998;5.864;2023-07-20T06:06:45;101002.69;;;17.16;83.30
48204;BME280;33994;50.998;5.864;2023-07-20T06:09:48;101013.91;;;17.21;83.19
48204;BME280;33994;50.998;5.864;2023-07-20T06:12:51;101014.72;;;17.23;83.30
48204;BME280;33994;50.998;5.864;2023-07-20T06:15:54;101007.91;;;17.18;83.41
48204;BME280;33994;50.998;5.864;2023-07-20T06:18:59;101015.09;;;17.14;83.50
48204;BME280;33994;50.998;5.864;2023-07-20T06:22:04;101012.44;;;17.14;83.88
48204;BME280;33994;50.998;5.864;2023-07-20T06:25:09;101009.56;;;17.20;83.35
48204;BME280;33994;50.998;5.864;2023-07-20T06:28:13;101012.13;;;17.22;83.02
48204;BME280;33994;50.998;5.864;2023-07-20T06:31:16;101012.06;;;17.23;82.67
48204;BME280;33994;50.998;5.864;2023-07-20T06:34:19;101015.41;;;17.29;82.61
48204;BME280;33994;50.998;5.864;2023-07-20T06:37:24;101009.50;;;17.44;82.67
48204;BME280;33994;50.998;5.864;2023-07-20T06:40:27;101012.72;;;17.50;81.91
48204;BME280;33994;50.998;5.864;2023-07-20T06:43:30;101011.13;;;17.46;81.62
48204;BME280;33994;50.998;5.864;2023-07-20T06:46:34;101009.06;;;17.55;81.71
48204;BME280;33994;50.998;5.864;2023-07-20T06:49:37;101015.69;;;17.65;80.42
48204;BME280;33994;50.998;5.864;2023-07-20T06:52:41;101007.69;;;17.66;80.18
48204;BME280;33994;50.998;5.864;2023-07-20T06:55:44;101015.16;;;17.79;79.96
48204;BME280;33994;50.998;5.864;2023-07-20T06:58:47;101014.38;;;17.97;79.35
48204;BME280;33994;50.998;5.864;2023-07-20T07:01:51;101020.72;;;18.13;78.22
48204;BME280;33994;50.998;5.864;2023-07-20T07:04:54;101018.88;;;18.36;77.32
48204;BME280;33994;50.998;5.864;2023-07-20T07:07:58;101026.25;;;18.68;76.41
48204;BME280;33994;50.998;5.864;2023-07-20T07:11:01;101025.53;;;18.84;75.16
48204;BME280;33994;50.998;5.864;2023-07-20T07:14:05;101036.34;;;18.79;74.39
48204;BME280;33994;50.998;5.864;2023-07-20T07:17:08;101031.41;;;18.71;74.20
48204;BME280;33994;50.998;5.864;2023-07-20T07:20:11;101024.06;;;18.58;74.27
48204;BME280;33994;50.998;5.864;2023-07-20T07:23:16;101035.66;;;18.55;74.31
48204;BME280;33994;50.998;5.864;2023-07-20T07:26:19;101030.78;;;18.46;73.96
48204;BME280;33994;50.998;5.864;2023-07-20T07:29:22;101031.75;;;18.43;73.99
48204;BME280;33994;50.998;5.864;2023-07-20T07:32:25;101035.44;;;18.60;73.62
48204;BME280;33994;50.998;5.864;2023-07-20T07:35:28;101042.16;;;18.87;72.10
48204;BME280;33994;50.998;5.864;2023-07-20T07:38:33;101042.25;;;19.05;70.16
48204;BME280;33994;50.998;5.864;2023-07-20T07:41:36;101031.13;;;19.15;69.18
48204;BME280;33994;50.998;5.864;2023-07-20T07:44:39;101047.41;;;19.27;68.63
48204;BME280;33994;50.998;5.864;2023-07-20T07:47:43;101042.72;;;19.32;68.66
48204;BME280;33994;50.998;5.864;2023-07-20T07:50:46;101051.41;;;19.35;68.28
48204;BME280;33994;50.998;5.864;2023-07-20T07:53:50;101046.00;;;19.37;67.65
48204;BME280;33994;50.998;5.864;2023-07-20T07:56:53;101049.13;;;19.45;68.33
48204;BME280;33994;50.998;5.864;2023-07-20T07:59:57;101045.59;;;19.46;68.60
48204;BME280;33994;50.998;5.864;2023-07-20T08:03:00;101046.09;;;19.35;68.93
48204;BME280;33994;50.998;5.864;2023-07-20T08:06:03;101051.47;;;19.34;69.10
48204;BME280;33994;50.998;5.864;2023-07-20T08:09:08;101057.44;;;19.20;68.52
48204;BME280;33994;50.998;5.864;2023-07-20T08:12:11;101061.44;;;19.10;69.02
48204;BME280;33994;50.998;5.864;2023-07-20T08:15:14;101056.34;;;19.05;69.24
48204;BME280;33994;50.998;5.864;2023-07-20T08:18:17;101061.22;;;18.95;69.51
48204;BME280;33994;50.998;5.864;2023-07-20T08:21:20;101063.72;;;18.99;69.80
48204;BME280;33994;50.998;5.864;2023-07-20T08:24:25;101053.63;;;19.07;68.95
48204;BME280;33994;50.998;5.864;2023-07-20T08:27:28;101054.69;;;19.21;68.54
48204;BME280;33994;50.998;5.864;2023-07-20T08:30:39;101048.50;;;19.40;67.34
48204;BME280;33994;50.998;5.864;2023-07-20T08:33:43;101051.88;;;19.43;66.95
48204;BME280;33994;50.998;5.864;2023-07-20T08:36:46;101044.94;;;19.41;66.25
48204;BME280;33994;50.998;5.864;2023-07-20T08:39:50;101052.88;;;19.41;64.53
48204;BME280;33994;50.998;5.864;2023-07-20T08:42:54;101042.28;;;19.41;64.33
48204;BME280;33994;50.998;5.864;2023-07-20T08:45:58;101045.28;;;19.52;64.28
48204;BME280;33994;50.998;5.864;2023-07-20T08:49:01;101048.84;;;19.70;63.41
48204;BME280;33994;50.998;5.864;2023-07-20T08:52:05;101050.56;;;19.71;63.46
48204;BME280;33994;50.998;5.864;2023-07-20T08:55:10;101053.91;;;19.75;63.95
48204;BME280;33994;50.998;5.864;2023-07-20T08:58:14;101050.50;;;19.73;63.90
48204;BME280;33994;50.998;5.864;2023-07-20T09:01:19;101045.72;;;19.79;63.75
48204;BME280;33994;50.998;5.864;2023-07-20T09:04:22;101044.56;;;19.85;62.78
48204;BME280;33994;50.998;5.864;2023-07-20T09:07:26;101045.75;;;19.97;62.96
48204;BME280;33994;50.998;5.864;2023-07-20T09:10:31;101037.09;;;20.10;62.62
48204;BME280;33994;50.998;5.864;2023-07-20T09:13:34;101040.38;;;20.15;61.41
48204;BME280;33994;50.998;5.864;2023-07-20T09:16:47;101039.56;;;20.13;60.77
48204;BME280;33994;50.998;5.864;2023-07-20T09:19:50;101034.50;;;20.09;61.71
48204;BME280;33994;50.998;5.864;2023-07-20T09:22:53;101037.25;;;20.07;62.31
48204;BME280;33994;50.998;5.864;2023-07-20T09:25:58;101029.59;;;20.01;62.25
48204;BME280;33994;50.998;5.864;2023-07-20T09:29:07;101035.22;;;19.95;61.64
48204;BME280;33994;50.998;5.864;2023-07-20T09:32:10;101034.28;;;19.96;61.75
48204;BME280;33994;50.998;5.864;2023-07-20T09:35:15;101033.09;;;20.02;61.71
48204;BME280;33994;50.998;5.864;2023-07-20T09:38:18;101033.66;;;20.08;60.98
48204;BME280;33994;50.998;5.864;2023-07-20T09:41:22;101043.78;;;20.17;59.80
48204;BME280;33994;50.998;5.864;2023-07-20T09:44:27;101039.56;;;20.13;58.78
48204;BME280;33994;50.998;5.864;2023-07-20T09:47:30;101028.03;;;20.14;58.96
48204;BME280;33994;50.998;5.864;2023-07-20T09:50:34;101030.50;;;20.17;59.24
48204;BME280;33994;50.998;5.864;2023-07-20T09:53:41;101026.00;;;20.20;59.18
48204;BME280;33994;50.998;5.864;2023-07-20T09:56:47;101027.69;;;20.21;59.98
48204;BME280;33994;50.998;5.864;2023-07-20T09:59:51;101018.47;;;20.28;59.83
48204;BME280;33994;50.998;5.864;2023-07-20T10:02:55;101020.44;;;20.41;59.22
48204;BME280;33994;50.998;5.864;2023-07-20T10:06:02;101017.38;;;20.49;58.13
48204;BME280;33994;50.998;5.864;2023-07-20T10:09:10;101020.28;;;20.45;57.86
48204;BME280;33994;50.998;5.864;2023-07-20T10:12:15;101020.59;;;20.38;57.58
48204;BME280;33994;50.998;5.864;2023-07-20T10:15:20;101014.13;;;20.27;58.06
48204;BME280;33994;50.998;5.864;2023-07-20T10:18:27;101022.31;;;20.22;58.79
48204;BME280;33994;50.998;5.864;2023-07-20T10:21:33;101013.25;;;20.26;58.69
48204;BME280;33994;50.998;5.864;2023-07-20T10:24:39;101014.59;;;20.35;58.80
48204;BME280;33994;50.998;5.864;2023-07-20T10:27:44;101005.91;;;20.49;58.73
48204;BME280;33994;50.998;5.864;2023-07-20T10:30:48;101015.00;;;20.60;58.46
48204;BME280;33994;50.998;5.864;2023-07-20T10:33:51;101004.59;;;20.56;57.56
48204;BME280;33994;50.998;5.864;2023-07-20T10:36:54;101012.50;;;20.57;57.05
48204;BME280;33994;50.998;5.864;2023-07-20T10:39:57;101006.41;;;20.55;56.21
48204;BME280;33994;50.998;5.864;2023-07-20T10:43:03;101004.00;;;20.51;55.90
48204;BME280;33994;50.998;5.864;2023-07-20T10:46:07;100994.06;;;20.54;56.00
48204;BME280;33994;50.998;5.864;2023-07-20T10:49:11;100994.69;;;20.59;56.57
48204;BME280;33994;50.998;5.864;2023-07-20T10:52:14;100991.00;;;20.62;56.44
48204;BME280;33994;50.998;5.864;2023-07-20T10:55:17;100998.72;;;20.66;55.84
48204;BME280;33994;50.998;5.864;2023-07-20T10:58:22;100985.59;;;20.63;54.69
48204;BME280;33994;50.998;5.864;2023-07-20T11:01:28;100997.34;;;20.59;54.29
48204;BME280;33994;50.998;5.864;2023-07-20T11:04:38;100988.25;;;20.63;54.02
48204;BME280;33994;50.998;5.864;2023-07-20T11:07:41;100993.41;;;20.66;54.37
48204;BME280;33994;50.998;5.864;2023-07-20T11:10:45;100993.56;;;20.63;54.21
48204;BME280;33994;50.998;5.864;2023-07-20T11:13:56;100989.19;;;20.62;53.42
48204;BME280;33994;50.998;5.864;2023-07-20T11:17:11;100993.34;;;20.68;53.24
48204;BME280;33994;50.998;5.864;2023-07-20T11:20:15;100988.09;;;20.66;53.38
48204;BME280;33994;50.998;5.864;2023-07-20T11:23:20;100984.41;;;20.69;53.07
48204;BME280;33994;50.998;5.864;2023-07-20T11:26:23;100985.44;;;20.66;53.58
48204;BME280;33994;50.998;5.864;2023-07-20T11:29:29;100977.31;;;20.70;54.37
48204;BME280;33994;50.998;5.864;2023-07-20T11:32:32;100975.44;;;20.72;53.76
48204;BME280;33994;50.998;5.864;2023-07-20T11:35:35;100969.50;;;20.66;53.61
48204;BME280;33994;50.998;5.864;2023-07-20T11:38:41;100973.09;;;20.65;53.26
48204;BME280;33994;50.998;5.864;2023-07-20T11:41:46;100976.53;;;20.68;52.91
48204;BME280;33994;50.998;5.864;2023-07-20T11:44:52;100972.94;;;20.69;51.98
48204;BME280;33994;50.998;5.864;2023-07-20T11:47:58;100973.38;;;20.77;52.38
48204;BME280;33994;50.998;5.864;2023-07-20T11:51:01;100964.03;;;20.85;52.21
48204;BME280;33994;50.998;5.864;2023-07-20T11:54:06;100954.84;;;20.91;50.63
48204;BME280;33994;50.998;5.864;2023-07-20T11:57:16;100957.59;;;20.89;48.12
48204;BME280;33994;50.998;5.864;2023-07-20T12:00:24;100951.78;;;20.99;48.88
48204;BME280;33994;50.998;5.864;2023-07-20T12:03:28;100951.06;;;21.11;49.74
48204;BME280;33994;50.998;5.864;2023-07-20T12:06:31;100955.03;;;21.20;49.39
48204;BME280;33994;50.998;5.864;2023-07-20T12:09:35;100944.22;;;21.23;49.75
48204;BME280;33994;50.998;5.864;2023-07-20T12:12:39;100949.38;;;21.26;49.77
48204;BME280;33994;50.998;5.864;2023-07-20T12:15:43;100940.25;;;21.30;49.64
48204;BME280;33994;50.998;5.864;2023-07-20T12:18:46;100941.47;;;21.40;49.14
48204;BME280;33994;50.998;5.864;2023-07-20T12:21:50;100939.28;;;21.47;48.65
48204;BME280;33994;50.998;5.864;2023-07-20T12:24:53;100939.03;;;21.51;48.27
48204;BME280;33994;50.998;5.864;2023-07-20T12:28:00;100941.47;;;21.54;47.95
48204;BME280;33994;50.998;5.864;2023-07-20T12:31:05;100933.91;;;21.62;48.22
48204;BME280;33994;50.998;5.864;2023-07-20T12:34:08;100931.66;;;21.71;47.96
48204;BME280;33994;50.998;5.864;2023-07-20T12:37:11;100932.22;;;21.76;47.85
48204;BME280;33994;50.998;5.864;2023-07-20T12:40:14;100936.06;;;21.86;48.12
48204;BME280;33994;50.998;5.864;2023-07-20T12:43:17;100936.66;;;21.91;47.44
48204;BME280;33994;50.998;5.864;2023-07-20T12:46:22;100942.47;;;21.98;46.42
48204;BME280;33994;50.998;5.864;2023-07-20T12:49:25;100927.34;;;21.98;45.53
48204;BME280;33994;50.998;5.864;2023-07-20T12:52:28;100929.25;;;21.96;45.70
48204;BME280;33994;50.998;5.864;2023-07-20T12:55:32;100927.19;;;22.01;46.16
48204;BME280;33994;50.998;5.864;2023-07-20T12:58:35;100921.56;;;22.06;47.14
48204;BME280;33994;50.998;5.864;2023-07-20T13:01:39;100920.31;;;22.11;47.03
48204;BME280;33994;50.998;5.864;2023-07-20T13:04:43;100913.75;;;22.17;46.56
48204;BME280;33994;50.998;5.864;2023-07-20T13:07:46;100910.91;;;22.20;47.10
48204;BME280;33994;50.998;5.864;2023-07-20T13:10:49;100907.19;;;22.23;47.11
48204;BME280;33994;50.998;5.864;2023-07-20T13:13:52;100904.69;;;22.20;47.28
48204;BME280;33994;50.998;5.864;2023-07-20T13:16:56;100907.38;;;22.20;47.19
48204;BME280;33994;50.998;5.864;2023-07-20T13:20:00;100907.97;;;22.25;47.23
48204;BME280;33994;50.998;5.864;2023-07-20T13:23:03;100908.69;;;22.27;47.20
48204;BME280;33994;50.998;5.864;2023-07-20T13:26:07;100901.13;;;22.21;46.63
48204;BME280;33994;50.998;5.864;2023-07-20T13:29:10;100895.41;;;22.13;46.97
48204;BME280;33994;50.998;5.864;2023-07-20T13:32:15;100891.19;;;22.08;46.92
48204;BME280;33994;50.998;5.864;2023-07-20T13:35:19;100902.44;;;21.99;46.34
48204;BME280;33994;50.998;5.864;2023-07-20T13:38:22;100898.25;;;21.95;47.15
48204;BME280;33994;50.998;5.864;2023-07-20T13:41:25;100898.44;;;21.92;46.87
48204;BME280;33994;50.998;5.864;2023-07-20T13:44:28;100893.34;;;21.87;47.13
48204;BME280;33994;50.998;5.864;2023-07-20T13:47:33;100884.88;;;21.81;47.16
48204;BME280;33994;50.998;5.864;2023-07-20T13:50:36;100896.31;;;21.83;47.68
48204;BME280;33994;50.998;5.864;2023-07-20T13:53:39;100892.88;;;21.81;47.56
48204;BME280;33994;50.998;5.864;2023-07-20T13:56:42;100889.47;;;21.79;47.42
48204;BME280;33994;50.998;5.864;2023-07-20T13:59:46;100882.22;;;21.81;47.32
48204;BME280;33994;50.998;5.864;2023-07-20T14:02:50;100881.84;;;21.87;47.33
48204;BME280;33994;50.998;5.864;2023-07-20T14:05:53;100877.19;;;21.91;46.81
48204;BME280;33994;50.998;5.864;2023-07-20T14:08:56;100871.56;;;21.81;46.63
48204;BME280;33994;50.998;5.864;2023-07-20T14:12:00;100871.56;;;21.81;46.88
48204;BME280;33994;50.998;5.864;2023-07-20T14:15:04;100869.69;;;21.83;46.75
48204;BME280;33994;50.998;5.864;2023-07-20T14:18:08;100862.66;;;21.82;46.61
48204;BME280;33994;50.998;5.864;2023-07-20T14:21:12;100865.09;;;21.85;46.48
48204;BME280;33994;50.998;5.864;2023-07-20T14:24:15;100860.75;;;21.84;46.51
48204;BME280;33994;50.998;5.864;2023-07-20T14:27:18;100850.66;;;21.89;46.70
48204;BME280;33994;50.998;5.864;2023-07-20T14:30:22;100852.47;;;21.88;46.57
48204;BME280;33994;50.998;5.864;2023-07-20T14:33:27;100853.16;;;21.92;46.54
48204;BME280;33994;50.998;5.864;2023-07-20T14:36:30;100854.00;;;21.93;46.04
48204;BME280;33994;50.998;5.864;2023-07-20T14:39:33;100858.63;;;21.89;46.11
48204;BME280;33994;50.998;5.864;2023-07-20T14:42:36;100852.47;;;21.88;45.74
48204;BME280;33994;50.998;5.864;2023-07-20T14:45:40;100849.72;;;21.90;45.59
48204;BME280;33994;50.998;5.864;2023-07-20T14:48:45;100853.31;;;21.89;45.70
48204;BME280;33994;50.998;5.864;2023-07-20T14:51:48;100846.59;;;21.83;45.72
48204;BME280;33994;50.998;5.864;2023-07-20T14:54:51;100843.91;;;21.83;46.00
48204;BME280;33994;50.998;5.864;2023-07-20T14:57:54;100833.75;;;21.90;45.75
48204;BME280;33994;50.998;5.864;2023-07-20T15:00:57;100833.50;;;21.95;45.95
48204;BME280;33994;50.998;5.864;2023-07-20T15:04:02;100831.88;;;21.92;45.64
48204;BME280;33994;50.998;5.864;2023-07-20T15:07:05;100828.06;;;21.96;45.51
48204;BME280;33994;50.998;5.864;2023-07-20T15:10:09;100829.78;;;21.97;45.13
48204;BME280;33994;50.998;5.864;2023-07-20T15:13:12;100816.66;;;21.94;45.07
48204;BME280;33994;50.998;5.864;2023-07-20T15:16:15;100810.56;;;21.92;45.22
48204;BME280;33994;50.998;5.864;2023-07-20T15:19:19;100817.97;;;21.87;45.45
48204;BME280;33994;50.998;5.864;2023-07-20T15:22:23;100811.13;;;21.83;45.53
48204;BME280;33994;50.998;5.864;2023-07-20T15:25:26;100811.13;;;21.83;45.60
48204;BME280;33994;50.998;5.864;2023-07-20T15:28:29;100811.97;;;21.83;45.60
48204;BME280;33994;50.998;5.864;2023-07-20T15:31:32;100811.13;;;21.83;45.63
48204;BME280;33994;50.998;5.864;2023-07-20T15:34:37;100806.75;;;21.82;45.35
48204;BME280;33994;50.998;5.864;2023-07-20T15:37:41;100801.50;;;21.80;45.48
48204;BME280;33994;50.998;5.864;2023-07-20T15:40:44;100798.56;;;21.85;45.33
48204;BME280;33994;50.998;5.864;2023-07-20T15:43:47;100802.00;;;21.87;45.49
48204;BME280;33994;50.998;5.864;2023-07-20T15:46:50;100803.69;;;21.88;45.43
48204;BME280;33994;50.998;5.864;2023-07-20T15:49:55;100793.22;;;21.85;45.10
48204;BME280;33994;50.998;5.864;2023-07-20T15:52:58;100800.84;;;21.77;45.25
48204;BME280;33994;50.998;5.864;2023-07-20T15:56:01;100793.81;;;21.76;45.48
48204;BME280;33994;50.998;5.864;2023-07-20T15:59:05;100798.97;;;21.79;45.42
48204;BME280;33994;50.998;5.864;2023-07-20T16:02:09;100798.00;;;21.80;44.84